Charlestown, IN

12:25 AM EDT on August 31, 2016 (GMT -0400)
Pleasant Run | | Change Station

Elev 492 ft 38.42 °N, 85.69 °W | Updated 20 seconds ago

Clear
Clear
71.8 °F
Feels Like 71.8 °F
N
0.0
Wind Variable Wind from NE
Gusts 0.0 mph

Today
High -- | Low -- °F
--% Chance of Precip.
Yesterday
High -- | Low -- °F
Precip. -- in
Pressure 30.03 in
Visibility 10.0 miles
Clouds Clear
Dew Point 71 °F
Humidity 96%
Rainfall 0.00 in
Snow Depth Not available.
7:11 AM 8:13 PM
Waning Crescent, 2% visible
METAR KLOU 310353Z 36003KT 10SM CLR 27/20 A3005 RMK AO2 SLP168 T02720200
Pressure 30.03 in
Visibility 10.0 miles
Clouds Clear
Dew Point 71 °F
Humidity 96%
Rainfall 0.00 in
Snow Depth Not available.
7:11 AM 8:13 PM
Waning Crescent, 2% visible
METAR KLOU 310353Z 36003KT 10SM CLR 27/20 A3005 RMK AO2 SLP168 T02720200

10-Day Weather Forecast

Almanac

Astronomy

Aug. 31, 2016 Rise Set
Actual Time
Civil Twilight
Nautical Twilight
Astronomical Twilight
Moon
Length of Visible Light
Length of Day
Tomorrow will be .
, % of the Moon is Illuminated

Today's Extremes

State Highs State Lows

Community

WunderPhotos

Upload Photos

1,936,035 photos uploaded!

WunderBlog® & News

Nearby

Air Quality

  Air Quality AQ Index Pollutant
Not available.

Snow Depth

Station Depth Elevation

Earthquake Activity

City Distance Mag. Time & Date
Minimum magnitude displayed is 2.5.

Coastal Water Temperatures

Place Temperature

Stations

Nearby Weather Stations

Station Location Temp. Windchill Dew Point Humidity Wind Precip. Elev Updated Type
                   

Watches & Warnings

There are currently no watches in effect.